Time;durP1;ratioP1;P1;durP2;ratioP2;P2;SDS_P1;SDS_P2;PMS_P1;PMS_P2;Temp;Humidity;BMP_temperature;BMP_pressure;BME280_temperature;BME280_humidity;BME280_pressure;Samples;Min_cycle;Max_cycle;Signal;HPM_P1;HPM_P2
2023/10/04 00:01:56;;;;;;;8.50;6.13;;;;;;;13.98;91.41;101106.91;5059662;28;20684;-83
2023/10/04 00:04:22;;;;;;;6.17;5.57;;;;;;;14.06;90.30;101123.34;5059213;28;20231;-83
2023/10/04 00:06:48;;;;;;;6.97;5.70;;;;;;;13.99;90.03;101125.22;5064056;28;20208;-81
2023/10/04 00:09:15;;;;;;;10.53;6.20;;;;;;;13.86;90.48;101126.41;5065102;28;20205;-83
2023/10/04 00:11:41;;;;;;;6.70;5.97;;;;;;;13.77;90.31;101127.44;5064710;28;20232;-84
2023/10/04 00:14:08;;;;;;;7.27;5.63;;;;;;;13.71;90.54;101124.94;5063984;28;20209;-81
2023/10/04 00:16:34;;;;;;;6.03;5.43;;;;;;;13.91;90.13;101127.16;5064687;28;20205;-81
2023/10/04 00:19:05;;;;;;;8.67;6.00;;;;;;;13.74;90.97;101109.16;5064411;28;20209;-82
2023/10/04 00:21:32;;;;;;;8.80;5.73;;;;;;;13.68;90.75;101125.88;5064084;28;20239;-83
2023/10/04 00:24:00;;;;;;;7.57;6.30;;;;;;;13.67;91.04;101112.78;5063743;28;20229;-81
2023/10/04 00:26:26;;;;;;;6.67;6.17;;;;;;;13.81;90.51;101117.75;5044570;28;20204;-81
2023/10/04 00:28:55;;;;;;;6.97;5.80;;;;;;;13.70;90.32;101125.88;5043929;28;20210;-83
2023/10/04 00:31:23;;;;;;;7.73;6.77;;;;;;;13.67;90.71;101121.53;5055867;28;20229;-80
2023/10/04 00:33:50;;;;;;;7.23;6.53;;;;;;;13.80;90.51;101116.91;5064817;28;20215;-81
2023/10/04 00:36:21;;;;;;;6.50;5.37;;;;;;;13.57;90.13;101125.25;5064506;28;20302;-83
2023/10/04 00:38:47;;;;;;;10.60;5.40;;;;;;;13.67;90.58;101118.91;5064871;28;20209;-79
2023/10/04 00:41:19;;;;;;;6.40;5.10;;;;;;;13.41;91.13;101114.19;5064394;28;20587;-83
2023/10/04 00:43:49;;;;;;;7.20;5.93;;;;;;;13.58;90.71;101100.75;5053275;28;20662;-81
2023/10/04 00:46:19;;;;;;;6.07;5.10;;;;;;;13.41;90.75;101121.19;5063569;28;20206;-83
2023/10/04 00:48:46;;;;;;;6.03;5.20;;;;;;;13.63;90.46;101108.50;5064758;28;20217;-82
2023/10/04 00:51:13;;;;;;;8.20;6.67;;;;;;;13.76;89.81;101124.88;5063634;28;20229;-80
2023/10/04 00:53:43;;;;;;;6.43;5.80;;;;;;;13.72;89.59;101133.72;5064225;28;20659;-80
2023/10/04 00:56:09;;;;;;;6.40;5.30;;;;;;;13.58;89.94;101136.63;5063807;28;20213;-79
2023/10/04 00:58:37;;;;;;;8.83;5.13;;;;;;;13.76;89.27;101138.00;5063701;28;20219;-81
2023/10/04 01:01:06;;;;;;;8.93;5.40;;;;;;;13.73;89.22;101141.53;5064078;28;20238;-80
2023/10/04 01:03:36;;;;;;;7.17;5.40;;;;;;;13.64;90.02;101133.88;5064018;28;20229;-80
2023/10/04 01:06:05;;;;;;;7.20;5.83;;;;;;;13.50;89.67;101140.25;5063832;28;20216;-81
2023/10/04 01:08:32;;;;;;;8.83;5.43;;;;;;;13.59;90.72;101110.31;5064569;28;20212;-79
2023/10/04 01:11:00;;;;;;;5.60;4.80;;;;;;;13.64;90.49;101111.09;5063517;28;20217;-81
2023/10/04 01:13:27;;;;;;;6.87;5.00;;;;;;;13.59;89.78;101114.72;5056370;28;20210;-81
2023/10/04 01:15:55;;;;;;;5.63;4.87;;;;;;;13.53;90.27;101120.09;5056107;28;20240;-81
2023/10/04 01:18:22;;;;;;;6.97;4.50;;;;;;;13.59;90.27;101114.72;5042943;28;20227;-81
2023/10/04 01:20:49;;;;;;;5.53;3.93;;;;;;;13.45;90.62;101118.47;5043130;28;20215;-82
2023/10/04 01:23:20;;;;;;;4.67;4.23;;;;;;;13.42;91.13;101108.06;5043406;28;20396;-82
2023/10/04 01:25:48;;;;;;;5.87;4.50;;;;;;;13.61;90.37;101120.78;5044921;28;20205;-81
2023/10/04 01:28:17;;;;;;;5.90;4.47;;;;;;;13.57;90.65;101122.63;5042422;28;20209;-82
2023/10/04 01:30:45;;;;;;;6.37;4.87;;;;;;;13.66;90.24;101132.06;5043018;28;20291;-80
2023/10/04 01:33:15;;;;;;;8.60;5.40;;;;;;;13.59;90.46;101128.69;5043150;28;20205;-79
2023/10/04 01:35:42;;;;;;;5.80;5.20;;;;;;;13.64;89.72;101133.88;5042903;28;20224;-82
2023/10/04 01:38:09;;;;;;;5.33;4.83;;;;;;;13.76;89.46;101149.34;5042258;28;20561;-82
2023/10/04 01:40:38;;;;;;;13.20;5.20;;;;;;;13.67;89.59;101142.50;5043423;28;20227;-80
2023/10/04 01:43:14;;;;;;;5.27;4.73;;;;;;;13.68;89.45;101151.28;5042712;28;20213;-81
2023/10/04 01:45:43;;;;;;;6.13;4.47;;;;;;;13.56;89.52;101149.75;5051831;28;20212;-81
2023/10/04 01:48:09;;;;;;;5.30;4.23;;;;;;;13.64;89.29;101163.56;5042420;28;20738;-82
2023/10/04 01:50:36;;;;;;;5.27;3.90;;;;;;;13.58;89.75;101150.59;5042709;28;20220;-80
2023/10/04 01:53:03;;;;;;;6.77;4.60;;;;;;;13.57;89.26;101159.34;5042395;28;20212;-83
2023/10/04 01:55:29;;;;;;;7.03;4.83;;;;;;;13.55;89.07;101168.13;5054245;28;20199;-83
2023/10/04 01:57:57;;;;;;;4.70;4.20;;;;;;;13.59;89.09;101156.69;5045752;28;20212;-81
2023/10/04 02:00:28;;;;;;;5.90;4.97;;;;;;;13.43;89.50;101164.84;5042533;28;20250;-82
2023/10/04 02:02:56;;;;;;;6.37;4.60;;;;;;;13.35;89.90;101153.66;5048973;28;20208;-83
2023/10/04 02:05:28;;;;;;;6.33;5.43;;;;;;;13.63;89.51;101151.34;5062007;28;20587;-81
2023/10/04 02:07:57;;;;;;;6.50;5.43;;;;;;;13.47;89.25;101168.28;5062626;28;20296;-83
2023/10/04 02:10:24;;;;;;;8.80;6.27;;;;;;;13.63;89.28;101155.72;5062441;28;20711;-81
2023/10/04 02:12:53;;;;;;;7.20;6.33;;;;;;;13.63;89.21;101164.47;5055985;28;20205;-80
2023/10/04 02:15:21;;;;;;;10.17;6.13;;;;;;;13.50;89.83;101144.63;5059662;28;20213;-80
2023/10/04 02:17:50;;;;;;;8.23;6.37;;;;;;;13.56;89.47;101151.50;5062425;28;20208;-83
2023/10/04 02:20:21;;;;;;;7.70;7.00;;;;;;;13.49;90.18;101146.38;5062085;28;20229;-82
2023/10/04 02:22:48;;;;;;;9.40;6.93;;;;;;;13.44;89.96;101145.63;5062275;28;20413;-81
2023/10/04 02:25:15;;;;;;;8.63;5.87;;;;;;;13.54;89.85;101148.03;5062180;28;20228;-81
2023/10/04 02:27:42;;;;;;;6.83;5.93;;;;;;;13.42;89.96;101154.38;5061374;28;20629;-85
2023/10/04 02:30:15;;;;;;;7.17;5.87;;;;;;;13.54;90.26;101151.53;5053531;28;20266;-81
2023/10/04 02:32:43;;;;;;;7.37;5.73;;;;;;;13.50;90.33;101139.38;5042387;28;20234;-80
2023/10/04 02:35:20;;;;;;;8.87;6.40;;;;;;;13.41;91.03;101136.94;5042550;28;20677;-83
2023/10/04 02:37:48;;;;;;;6.50;5.80;;;;;;;13.30;90.57;101150.25;5042123;28;20209;-82
2023/10/04 02:40:15;;;;;;;6.57;5.30;;;;;;;13.39;90.66;101143.97;5042186;28;20227;-82
2023/10/04 02:42:44;;;;;;;5.67;5.07;;;;;;;13.55;90.46;101150.63;5041970;28;20240;-84
2023/10/04 02:45:22;;;;;;;6.07;5.07;;;;;;;13.54;89.78;101154.16;5059464;28;20236;-83
2023/10/04 02:47:50;;;;;;;11.30;5.43;;;;;;;13.50;90.00;101166.47;5062239;28;20203;-83
2023/10/04 02:50:20;;;;;;;6.17;5.67;;;;;;;13.40;89.90;101174.53;5062104;28;20660;-83
2023/10/04 02:52:47;;;;;;;6.03;5.47;;;;;;;13.53;89.58;101173.41;5061711;28;20236;-82
2023/10/04 02:55:17;;;;;;;7.70;6.70;;;;;;;13.60;89.14;101171.56;5071963;28;20204;-82
2023/10/04 02:57:45;;;;;;;6.43;5.90;;;;;;;13.50;89.72;101165.63;5062336;28;20574;-82
2023/10/04 03:00:15;;;;;;;6.90;6.30;;;;;;;13.52;90.09;101163.81;5062591;28;20228;-80
2023/10/04 03:02:42;;;;;;;8.80;7.03;;;;;;;13.60;89.65;101174.19;5062825;28;20207;-82
2023/10/04 03:05:18;;;;;;;7.67;5.97;;;;;;;13.68;89.07;101188.00;5062722;28;20236;-83
2023/10/04 03:07:47;;;;;;;6.70;5.97;;;;;;;13.38;89.85;101197.28;5063069;28;20199;-84
2023/10/04 03:10:23;;;;;;;7.87;5.43;;;;;;;13.46;89.82;101174.44;5063794;28;20263;-82
2023/10/04 03:12:51;;;;;;;7.57;5.17;;;;;;;13.53;89.66;101176.03;5062237;28;20245;-83
2023/10/04 03:15:18;;;;;;;6.37;5.57;;;;;;;13.64;89.29;101179.31;5062757;28;20330;-83
2023/10/04 03:17:46;;;;;;;5.57;5.07;;;;;;;13.74;89.07;101184.41;5063550;28;20205;-82
2023/10/04 03:20:20;;;;;;;6.57;5.33;;;;;;;13.48;89.39;101204.97;5062606;28;20291;-82
2023/10/04 03:22:47;;;;;;;6.13;4.77;;;;;;;13.65;89.67;101190.66;5062705;28;20651;-83
2023/10/04 03:25:14;;;;;;;5.37;4.57;;;;;;;13.65;89.53;101193.28;5063323;28;20235;-82
2023/10/04 03:27:43;;;;;;;8.87;5.13;;;;;;;13.75;89.09;101202.72;5048884;28;20233;-82
2023/10/04 03:30:14;;;;;;;6.60;4.77;;;;;;;13.77;88.89;101205.31;5043046;28;20308;-83
2023/10/04 03:32:42;;;;;;;5.50;4.87;;;;;;;13.69;89.13;101208.94;5042852;28;20208;-83
2023/10/04 03:35:14;;;;;;;6.03;4.97;;;;;;;13.50;89.60;101212.81;5042038;28;20220;-83
2023/10/04 03:37:54;;;;;;;8.77;4.80;;;;;;;13.75;89.44;101207.09;5054477;28;20767;-83
2023/10/04 03:40:21;;;;;;;8.07;5.73;;;;;;;13.68;88.74;101224.72;5063205;28;20289;-82
2023/10/04 03:42:47;;;;;;;7.93;5.47;;;;;;;13.75;89.19;101218.44;5065596;28;20288;-82
2023/10/04 03:45:18;;;;;;;6.40;5.37;;;;;;;13.73;89.20;101215.00;5066168;28;20243;-83
2023/10/04 03:47:50;;;;;;;6.93;5.30;;;;;;;13.80;88.98;101210.50;5066461;28;20199;-83
2023/10/04 03:50:19;;;;;;;8.40;5.07;;;;;;;13.77;88.94;101213.19;5064887;28;20242;-83
2023/10/04 03:52:51;;;;;;;7.00;5.30;;;;;;;13.86;89.18;101229.59;5065749;28;20207;-82
2023/10/04 03:55:18;;;;;;;6.50;5.80;;;;;;;13.67;89.30;101225.59;5065730;28;20666;-83
2023/10/04 03:57:45;;;;;;;8.53;5.90;;;;;;;13.78;89.20;101213.16;5066004;28;20212;-83
2023/10/04 04:00:13;;;;;;;7.77;5.87;;;;;;;13.80;89.25;101216.63;5067074;28;20231;-82
2023/10/04 04:02:41;;;;;;;6.43;5.73;;;;;;;13.82;89.15;101213.97;5067350;28;20204;-83
2023/10/04 04:05:11;;;;;;;6.03;5.40;;;;;;;13.76;89.58;101209.69;5066966;28;20226;-84
2023/10/04 04:07:37;;;;;;;8.53;6.27;;;;;;;13.79;89.14;101203.50;5065964;28;20209;-82
2023/10/04 04:10:07;;;;;;;8.60;5.80;;;;;;;13.83;89.28;101202.56;5066730;28;20237;-81
2023/10/04 04:12:34;;;;;;;5.97;5.37;;;;;;;13.62;89.84;101203.88;5065360;28;20215;-82
2023/10/04 04:15:03;;;;;;;6.23;5.47;;;;;;;13.61;89.51;101204.75;5051308;28;20202;-84
2023/10/04 04:17:30;;;;;;;8.77;6.87;;;;;;;13.74;89.88;101189.66;5064288;28;20209;-83
2023/10/04 04:19:56;;;;;;;7.47;6.77;;;;;;;13.77;89.96;101182.53;5067131;28;20259;-82
2023/10/04 04:22:32;;;;;;;7.83;6.37;;;;;;;13.65;90.27;101185.41;5065801;28;20337;-84
2023/10/04 04:24:58;;;;;;;6.57;5.60;;;;;;;13.65;90.34;101165.28;5065573;28;20246;-85
2023/10/04 04:27:27;;;;;;;8.20;6.73;;;;;;;13.58;90.37;101162.84;5059786;28;20213;-85
2023/10/04 04:29:54;;;;;;;6.50;5.80;;;;;;;13.45;89.91;101170.94;5044100;28;20813;-82
2023/10/04 04:32:26;;;;;;;6.87;6.17;;;;;;;13.71;89.69;101166.94;5047668;28;20203;-83
2023/10/04 04:34:53;;;;;;;7.10;6.50;;;;;;;13.63;89.60;101181.97;5060089;28;20197;-84
2023/10/04 04:37:22;;;;;;;7.77;6.70;;;;;;;13.45;90.16;101170.94;5057291;28;20207;-85
2023/10/04 04:39:48;;;;;;;7.63;6.77;;;;;;;13.72;89.47;101170.44;5056762;28;20248;-83
2023/10/04 04:42:20;;;;;;;8.30;7.23;;;;;;;13.51;90.05;101170.81;5055085;28;20208;-82
2023/10/04 04:44:48;;;;;;;7.83;7.23;;;;;;;13.59;89.77;101178.53;5056914;28;20228;-82
2023/10/04 04:47:17;;;;;;;9.03;8.20;;;;;;;13.52;89.91;101171.69;5061460;28;20203;-84
2023/10/04 04:49:44;;;;;;;12.83;7.83;;;;;;;13.50;90.85;101161.22;5060617;28;20229;-83
2023/10/04 04:52:11;;;;;;;8.20;7.40;;;;;;;13.63;90.29;101155.72;5048796;28;20209;-83
2023/10/04 04:54:37;;;;;;;9.70;7.30;;;;;;;13.78;89.69;101176.41;5047753;28;20280;-83
2023/10/04 04:57:05;;;;;;;10.13;7.27;;;;;;;13.41;90.24;101178.91;5043572;28;20579;-84
2023/10/04 04:59:33;;;;;;;9.00;7.37;;;;;;;13.54;90.70;101162.03;5046624;28;20261;-85
2023/10/04 05:02:01;;;;;;;8.47;7.70;;;;;;;13.54;90.11;101169.03;5044023;28;20288;-84
2023/10/04 05:04:28;;;;;;;8.07;7.23;;;;;;;13.64;90.46;101176.69;5044279;28;20258;-84
2023/10/04 05:06:54;;;;;;;7.90;7.10;;;;;;;13.75;89.79;101181.72;5042239;28;20660;-82
2023/10/04 05:09:20;;;;;;;10.67;7.50;;;;;;;13.39;91.27;101178.06;5043080;28;20215;-82
2023/10/04 05:11:47;;;;;;;9.00;8.03;;;;;;;13.43;91.14;101182.34;5046674;28;20236;-85
2023/10/04 05:14:13;;;;;;;9.50;8.60;;;;;;;13.54;91.14;101188.28;5062418;28;20217;-84
2023/10/04 05:16:40;;;;;;;12.63;8.83;;;;;;;13.59;90.82;101189.03;5067264;28;20212;-83
2023/10/04 05:19:10;;;;;;;10.53;8.27;;;;;;;13.61;90.93;101197.72;5057203;28;20215;-85
2023/10/04 05:21:37;;;;;;;10.37;8.73;;;;;;;13.66;90.66;101206.38;5042863;28;20235;-82
2023/10/04 05:24:05;;;;;;;8.87;7.97;;;;;;;13.63;90.57;101205.56;5049630;28;20213;-84
2023/10/04 05:26:32;;;;;;;9.37;8.37;;;;;;;13.74;90.08;101221.13;5044486;28;20263;-81
2023/10/04 05:29:00;;;;;;;8.73;7.93;;;;;;;13.51;90.42;101231.13;5045122;28;20234;-83
2023/10/04 05:31:26;;;;;;;9.13;8.17;;;;;;;13.55;90.97;101220.59;5045181;28;20776;-82
2023/10/04 05:33:53;;;;;;;10.23;7.87;;;;;;;13.65;90.38;101227.41;5045642;28;20646;-83
2023/10/04 05:36:22;;;;;;;9.90;9.00;;;;;;;13.56;91.12;101224.94;5044735;28;20329;-85
2023/10/04 05:38:48;;;;;;;10.30;8.83;;;;;;;13.64;90.49;101228.31;5045890;28;20210;-85
2023/10/04 05:41:15;;;;;;;10.63;9.73;;;;;;;13.55;90.83;101233.72;5047824;28;20226;-84
2023/10/04 05:43:43;;;;;;;11.90;10.07;;;;;;;13.68;90.40;101235.22;5058477;28;20209;-86
2023/10/04 05:46:11;;;;;;;11.37;10.30;;;;;;;13.30;91.59;101240.28;5065250;28;20224;-84
2023/10/04 05:48:37;;;;;;;11.20;9.53;;;;;;;13.63;91.02;101219.56;5050844;28;20212;-85
2023/10/04 05:51:06;;;;;;;10.70;9.80;;;;;;;13.70;90.54;101231.66;5068139;28;20239;-85
2023/10/04 05:53:34;;;;;;;14.40;10.77;;;;;;;13.70;90.30;101236.06;5069567;28;20289;-86
2023/10/04 05:56:01;;;;;;;11.30;10.30;;;;;;;13.55;90.86;101231.94;5069715;28;20207;-86
2023/10/04 05:58:27;;;;;;;11.20;10.10;;;;;;;13.70;90.64;101236.91;5069410;28;20208;-86
2023/10/04 06:00:55;;;;;;;10.90;10.00;;;;;;;13.60;90.56;101252.88;5064118;28;20318;-83
2023/10/04 06:03:22;;;;;;;11.63;10.53;;;;;;;13.60;90.47;101258.97;5075636;28;20223;-84
2023/10/04 06:05:50;;;;;;;11.30;10.20;;;;;;;13.59;90.85;101244.13;5068718;28;20231;-84
2023/10/04 06:08:18;;;;;;;11.90;10.90;;;;;;;13.72;90.47;101249.16;5077178;28;20201;-84
2023/10/04 06:10:47;;;;;;;11.83;10.83;;;;;;;13.62;90.46;101258.94;5077548;28;20200;-85
2023/10/04 06:13:17;;;;;;;12.90;11.57;;;;;;;13.51;91.30;101262.59;5078235;28;20208;-81
2023/10/04 06:15:46;;;;;;;13.60;12.50;;;;;;;13.51;91.85;101231.13;5077726;28;20210;-82
2023/10/04 06:18:13;;;;;;;13.67;12.47;;;;;;;13.55;91.84;101224.09;5066935;28;20298;-84
2023/10/04 06:20:40;;;;;;;12.80;11.57;;;;;;;13.62;91.27;101232.72;5061081;28;20230;-82
2023/10/04 06:23:09;;;;;;;13.70;11.77;;;;;;;13.56;91.30;101248.53;5040733;28;20233;-83
2023/10/04 06:25:41;;;;;;;13.03;12.00;;;;;;;13.54;91.71;101238.09;5039362;28;20287;-84
2023/10/04 06:28:19;;;;;;;15.57;12.40;;;;;;;13.56;91.85;101240.69;5037907;28;20204;-87
2023/10/04 06:30:48;;;;;;;15.07;13.50;;;;;;;13.47;92.51;101233.84;5038816;28;20240;-83
2023/10/04 06:33:15;;;;;;;13.77;12.47;;;;;;;13.50;91.99;101237.28;5042580;28;20216;-84
2023/10/04 06:35:43;;;;;;;13.63;12.23;;;;;;;13.50;92.71;101225.94;5053683;28;20253;-82
2023/10/04 06:38:10;;;;;;;12.80;11.80;;;;;;;13.64;92.22;101230.94;5063243;28;20208;-82
2023/10/04 06:40:38;;;;;;;14.23;12.87;;;;;;;13.29;93.33;101241.16;5062658;28;20233;-84
2023/10/04 06:43:06;;;;;;;15.20;12.67;;;;;;;13.38;94.30;101205.16;5045947;28;20236;-81
2023/10/04 06:45:35;;;;;;;12.40;11.40;;;;;;;13.60;92.79;101214.38;5040092;28;20239;-83
2023/10/04 06:48:03;;;;;;;12.57;11.37;;;;;;;13.54;92.20;101222.38;5063102;28;20235;-80
2023/10/04 06:50:32;;;;;;;14.50;11.40;;;;;;;13.66;92.16;101226.53;5063801;28;20248;-82
2023/10/04 06:53:01;;;;;;;11.70;10.57;;;;;;;13.49;91.97;101251.28;5059632;28;20295;-81
2023/10/04 06:55:28;;;;;;;11.47;10.43;;;;;;;13.55;92.42;101229.31;5060149;28;20231;-82
2023/10/04 06:57:55;;;;;;;12.77;10.87;;;;;;;13.70;92.13;101247.41;5057961;28;20211;-84
2023/10/04 07:00:26;;;;;;;11.90;10.83;;;;;;;13.70;91.92;101257.91;5059783;28;20232;-85
2023/10/04 07:02:58;;;;;;;12.97;11.07;;;;;;;13.69;92.50;101250.91;5051372;28;20235;-85
2023/10/04 07:05:26;;;;;;;11.97;10.63;;;;;;;13.48;92.93;101249.56;5058372;28;20284;-85
2023/10/04 07:07:56;;;;;;;12.73;11.63;;;;;;;13.45;93.13;101244.38;5057380;28;20202;-85
2023/10/04 07:10:24;;;;;;;13.20;11.87;;;;;;;13.48;93.71;101236.44;5039706;28;20768;-83
2023/10/04 07:12:52;;;;;;;13.47;12.13;;;;;;;13.60;93.41;101250.25;5051601;28;20236;-86
2023/10/04 07:15:20;;;;;;;14.30;12.43;;;;;;;13.68;93.25;101243.94;5055559;28;20639;-85
2023/10/04 07:17:48;;;;;;;14.47;13.10;;;;;;;13.80;92.80;101249.88;5064022;28;20203;-81
2023/10/04 07:20:18;;;;;;;14.67;13.17;;;;;;;13.89;92.43;101263.69;5061319;28;20280;-82
2023/10/04 07:22:47;;;;;;;16.57;13.77;;;;;;;13.78;92.31;101264.78;5058553;28;20208;-81
2023/10/04 07:25:14;;;;;;;14.27;12.83;;;;;;;13.63;93.26;101247.56;5055316;28;20226;-84
2023/10/04 07:27:42;;;;;;;14.93;12.33;;;;;;;13.76;93.33;101261.31;5055222;28;20666;-86
2023/10/04 07:30:12;;;;;;;12.40;11.20;;;;;;;13.85;92.25;101280.34;5058929;28;20289;-86
2023/10/04 07:32:41;;;;;;;12.63;10.57;;;;;;;13.88;92.30;101290.81;5055174;28;20200;-86
2023/10/04 07:35:11;;;;;;;12.37;10.97;;;;;;;13.69;92.76;101316.50;5064901;28;20207;-84
2023/10/04 07:37:39;;;;;;;13.63;12.23;;;;;;;13.77;92.83;101316.38;5062917;28;20266;-85
2023/10/04 07:40:10;;;;;;;13.50;12.23;;;;;;;14.03;92.82;101309.78;5064934;28;20228;-85
2023/10/04 07:42:37;;;;;;;13.13;11.90;;;;;;;13.84;92.39;101338.16;5061483;28;20204;-85
2023/10/04 07:45:04;;;;;;;14.27;12.90;;;;;;;13.98;92.10;101322.16;5048983;28;20234;-85
2023/10/04 07:47:31;;;;;;;13.40;12.20;;;;;;;14.15;92.63;101306.03;5058664;28;20207;-83
2023/10/04 07:52:33;;;;;;;12.77;11.43;;;;;;;14.23;92.01;101309.38;5145804;22;20251;-86
2023/10/04 07:55:05;;;;;;;13.57;12.17;;;;;;;14.11;91.40;101336.75;5058443;28;20265;-87
2023/10/04 07:57:32;;;;;;;13.20;12.00;;;;;;;14.43;91.00;101336.13;5054974;28;20240;-85
2023/10/04 07:59:58;;;;;;;13.33;12.13;;;;;;;14.43;90.13;101369.38;5058016;28;20224;-84
2023/10/04 08:02:24;;;;;;;12.70;11.47;;;;;;;14.41;90.01;101364.19;5061571;28;20212;-83
2023/10/04 08:04:51;;;;;;;12.10;11.00;;;;;;;14.56;89.85;101386.69;5058870;28;20219;-83
2023/10/04 08:07:18;;;;;;;14.70;12.67;;;;;;;14.36;90.38;101391.44;5044938;28;20208;-86
2023/10/04 08:09:45;;;;;;;12.33;11.07;;;;;;;14.39;89.43;101404.50;5042800;28;20275;-84
2023/10/04 08:12:13;;;;;;;15.73;11.57;;;;;;;14.44;90.29;101392.16;5041072;28;20215;-83
2023/10/04 08:14:40;;;;;;;13.23;12.20;;;;;;;14.46;89.98;101388.59;5042729;28;20208;-85
2023/10/04 08:17:06;;;;;;;15.70;12.27;;;;;;;14.46;90.28;101380.72;5041393;28;20235;-86
2023/10/04 08:19:33;;;;;;;14.33;11.90;;;;;;;14.56;90.39;101375.28;5039522;28;20206;-84
2023/10/04 08:21:59;;;;;;;13.70;12.37;;;;;;;14.72;89.29;101384.59;5045170;28;20208;-86
2023/10/04 08:24:26;;;;;;;12.67;11.40;;;;;;;14.72;88.29;101416.13;5048025;28;20273;-82
2023/10/04 08:26:53;;;;;;;12.13;11.00;;;;;;;14.65;89.11;101411.91;5045005;28;20745;-85
2023/10/04 08:29:23;;;;;;;15.60;13.30;;;;;;;14.75;89.33;101409.97;5043112;28;20302;-84
2023/10/04 08:31:49;;;;;;;12.87;11.97;;;;;;;14.92;89.74;101401.72;5042257;28;20742;-84
2023/10/04 08:34:18;;;;;;;15.83;12.63;;;;;;;14.94;89.23;101406.03;5042094;28;20208;-83
2023/10/04 08:36:48;;;;;;;15.80;11.40;;;;;;;14.73;88.33;101428.41;5040247;28;20291;-85
2023/10/04 08:39:15;;;;;;;13.50;11.97;;;;;;;14.80;88.27;101442.25;5053888;28;20394;-84
2023/10/04 08:41:41;;;;;;;15.23;11.63;;;;;;;15.02;87.84;101440.06;5052958;28;20234;-81
2023/10/04 08:44:08;;;;;;;12.23;11.23;;;;;;;15.04;87.86;101444.41;5047262;28;20204;-85
2023/10/04 08:46:37;;;;;;;13.73;11.30;;;;;;;14.79;85.99;101474.72;5047398;28;20222;-84
2023/10/04 08:49:04;;;;;;;12.87;11.53;;;;;;;15.13;86.57;101482.78;5043347;28;20211;-84
2023/10/04 08:51:40;;;;;;;12.83;11.57;;;;;;;15.10;86.22;101482.81;5040171;28;20229;-83
2023/10/04 08:54:14;;;;;;;12.13;11.13;;;;;;;15.04;86.07;101490.84;5039034;28;20204;-83
2023/10/04 08:56:48;;;;;;;13.43;12.03;;;;;;;15.19;86.61;101497.56;5040275;28;20200;-84
2023/10/04 08:59:14;;;;;;;12.67;11.57;;;;;;;15.09;84.96;101499.53;5037524;28;20730;-87
2023/10/04 09:01:47;;;;;;;13.03;11.90;;;;;;;15.15;85.89;101503.78;5044532;28;20233;-84
2023/10/04 09:04:15;;;;;;;12.10;11.10;;;;;;;15.09;84.80;101518.78;5040642;28;20209;-88
2023/10/04 09:06:42;;;;;;;11.87;10.60;;;;;;;15.09;85.02;101525.81;5039668;28;20256;-85
2023/10/04 09:09:11;;;;;;;13.57;11.70;;;;;;;15.12;87.00;101475.78;5036827;28;20200;-84
2023/10/04 09:11:38;;;;;;;12.27;10.97;;;;;;;15.06;85.66;101486.41;5037872;28;20226;-84
2023/10/04 09:14:05;;;;;;;14.13;10.83;;;;;;;15.24;85.46;101491.31;5037201;28;20668;-84
2023/10/04 09:16:32;;;;;;;10.87;9.73;;;;;;;15.09;85.53;101489.84;5037940;28;20210;-86
2023/10/04 09:19:08;;;;;;;11.63;10.53;;;;;;;15.13;85.08;101511.72;5038621;28;20235;-84
2023/10/04 09:21:38;;;;;;;10.87;9.77;;;;;;;15.25;85.30;101503.56;5036344;28;20233;-82
2023/10/04 09:24:09;;;;;;;10.47;9.57;;;;;;;15.20;85.30;101507.16;5037158;28;20267;-85
2023/10/04 09:26:37;;;;;;;10.27;9.13;;;;;;;15.34;84.71;101527.94;5037597;28;20221;-86
2023/10/04 09:29:04;;;;;;;9.30;8.50;;;;;;;15.22;84.19;101543.09;5032975;28;20266;-83
2023/10/04 09:31:31;;;;;;;12.67;9.37;;;;;;;15.15;83.80;101541.47;5038450;28;20289;-82
2023/10/04 09:36:52;;;;;;;10.70;9.30;;;;;;;15.27;83.02;101558.75;5097121;27;20556;-83
2023/10/04 09:39:23;;;;;;;10.53;8.90;;;;;;;15.41;82.69;101559.34;5095210;28;20217;-80
2023/10/04 09:41:51;;;;;;;8.97;8.23;;;;;;;15.59;82.67;101565.97;5076081;28;20235;-80
2023/10/04 09:44:23;;;;;;;8.63;7.93;;;;;;;15.55;82.38;101571.34;5075615;28;20204;-87
2023/10/04 09:47:03;;;;;;;9.33;8.63;;;;;;;15.57;80.76;101603.75;5075256;28;20596;-83
2023/10/04 09:49:51;;;;;;;11.20;9.23;;;;;;;15.70;80.76;101636.81;5076752;28;20199;-86
2023/10/04 09:52:19;;;;;;;9.03;8.10;;;;;;;15.76;80.50;101649.03;5075233;28;20210;-83
2023/10/04 09:54:48;;;;;;;8.10;7.37;;;;;;;15.86;78.86;101669.84;5079050;28;20280;-83
2023/10/04 09:57:16;;;;;;;9.90;8.80;;;;;;;15.79;80.05;101678.78;5074007;28;20204;-84
2023/10/04 09:59:44;;;;;;;10.20;8.77;;;;;;;15.84;79.57;101689.22;5073582;28;20207;-83
2023/10/04 10:02:11;;;;;;;9.40;8.37;;;;;;;15.83;79.22;101704.13;5075384;28;20208;-85
2023/10/04 10:04:45;;;;;;;9.43;8.50;;;;;;;15.81;77.88;101734.03;5073482;28;20326;-86
2023/10/04 10:07:16;;;;;;;11.27;8.87;;;;;;;15.75;79.08;101716.59;5074376;28;20208;-86
2023/10/04 10:09:58;;;;;;;10.43;8.10;;;;;;;15.87;79.68;101711.06;5074570;28;20212;-87
2023/10/04 10:12:28;;;;;;;14.10;8.27;;;;;;;15.93;79.08;101704.81;5075142;28;20239;-86
2023/10/04 10:14:55;;;;;;;8.47;7.40;;;;;;;15.73;76.63;101726.28;5073952;28;20311;-83
2023/10/04 10:17:22;;;;;;;7.47;6.77;;;;;;;15.97;77.55;101738.09;5071882;28;20201;-85
2023/10/04 10:19:49;;;;;;;8.43;7.63;;;;;;;15.95;77.35;101746.94;5076980;28;20205;-87
2023/10/04 10:22:18;;;;;;;8.70;7.80;;;;;;;15.96;77.66;101740.78;5076118;28;20291;-85
2023/10/04 10:24:48;;;;;;;8.53;7.37;;;;;;;16.09;77.51;101742.22;5076909;28;20262;-84
2023/10/04 10:27:20;;;;;;;7.87;7.17;;;;;;;16.12;77.40;101749.22;5073825;28;20201;-86
2023/10/04 10:29:47;;;;;;;7.90;7.20;;;;;;;16.19;76.32;101759.56;5082565;28;20212;-83
2023/10/04 10:32:22;;;;;;;8.73;7.83;;;;;;;16.10;77.19;101761.56;5077449;28;20215;-85
2023/10/04 10:34:51;;;;;;;6.90;6.30;;;;;;;15.97;75.96;101768.84;5073792;28;20215;-85
2023/10/04 10:37:19;;;;;;;9.10;7.43;;;;;;;16.22;77.02;101763.94;5072744;28;20264;-86
2023/10/04 10:39:48;;;;;;;7.43;6.83;;;;;;;16.29;77.70;101749.72;5074141;28;20200;-83
2023/10/04 10:42:17;;;;;;;7.10;6.50;;;;;;;16.35;75.33;101778.59;5069779;28;20251;-85
2023/10/04 10:44:44;;;;;;;6.77;6.17;;;;;;;16.60;75.66;101791.22;5073261;28;20269;-87
2023/10/04 10:47:19;;;;;;;9.50;6.77;;;;;;;16.63;74.77;101820.13;5056235;28;20205;-85
2023/10/04 10:49:55;;;;;;;7.27;6.57;;;;;;;16.70;74.10;101821.75;5059862;28;20628;-87
2023/10/04 10:52:26;;;;;;;7.47;6.13;;;;;;;16.66;74.06;101847.31;5050339;28;20284;-86
2023/10/04 10:54:54;;;;;;;6.43;5.83;;;;;;;16.26;72.19;101900.84;5057948;28;20220;-87
2023/10/04 10:57:23;;;;;;;6.43;5.87;;;;;;;16.54;74.30;101870.44;5059508;28;20203;-86
2023/10/04 10:59:52;;;;;;;6.97;6.37;;;;;;;16.66;74.91;101835.91;5060770;28;20213;-85
2023/10/04 11:02:19;;;;;;;5.90;5.30;;;;;;;16.62;73.86;101864.09;5060203;28;20231;-86
2023/10/04 11:04:45;;;;;;;6.60;5.83;;;;;;;16.64;74.27;101846.47;5066293;28;20213;-85
2023/10/04 11:07:12;;;;;;;9.63;5.87;;;;;;;16.90;73.33;101870.59;5055507;28;20202;-86
2023/10/04 11:09:40;;;;;;;6.90;5.00;;;;;;;16.86;70.53;101902.28;5060386;28;20266;-87
2023/10/04 11:12:10;;;;;;;6.20;5.60;;;;;;;17.10;71.27;101907.06;5061133;28;20209;-87
2023/10/04 11:14:38;;;;;;;6.27;5.10;;;;;;;16.51;71.23;101946.94;5058810;28;20207;-84
2023/10/04 11:17:05;;;;;;;7.20;5.67;;;;;;;16.39;70.57;101945.41;5060360;28;20233;-86
2023/10/04 11:19:34;;;;;;;5.97;5.23;;;;;;;16.57;70.04;101965.25;5060696;28;20210;-85
2023/10/04 11:22:02;;;;;;;9.27;5.60;;;;;;;16.96;72.07;101929.34;5059834;28;20209;-85
2023/10/04 11:24:29;;;;;;;5.27;4.70;;;;;;;17.15;69.01;101957.97;5061132;28;20537;-84
2023/10/04 11:26:56;;;;;;;6.43;5.33;;;;;;;17.17;68.33;101993.13;5059099;28;20205;-84
2023/10/04 11:29:26;;;;;;;6.40;4.90;;;;;;;17.22;67.96;102017.63;5062165;28;20216;-86
2023/10/04 11:31:55;;;;;;;7.70;5.33;;;;;;;17.47;68.23;102010.91;5067106;28;20249;-85